Time;durP1;ratioP1;P1;durP2;ratioP2;P2;SDS_P1;SDS_P2;PMS_P1;PMS_P2;Temp;Humidity;BMP_temperature;BMP_pressure;BME280_temperature;BME280_humidity;BME280_pressure;Samples;Min_cycle;Max_cycle;Signal;HPM_P1;HPM_P2
2022/08/23 01:45:39;;;;;;;;;2.50;1.00;25.00;99.90;;;;;;5061742;27;13480;-63
2022/08/23 01:48:14;;;;;;;;;2.00;2.00;24.80;99.90;;;;;;5040430;28;8867;-64
2022/08/23 01:50:47;;;;;;;;;2.00;2.00;24.50;99.90;;;;;;5044206;28;8851;-67
2022/08/23 01:53:18;;;;;;;;;1.80;1.80;24.40;99.90;;;;;;5045260;28;8852;-69
2022/08/23 01:55:51;;;;;;;;;1.00;1.00;24.40;99.90;;;;;;5059202;28;8856;-65
2022/08/23 01:58:25;;;;;;;;;2.00;2.00;24.40;99.90;;;;;;5034264;28;8831;-63
2022/08/23 02:01:00;;;;;;;;;1.00;1.00;24.60;99.90;;;;;;5049221;28;8842;-70
2022/08/23 02:03:32;;;;;;;;;1.00;1.00;24.50;99.90;;;;;;5032642;28;9812;-68
2022/08/23 02:06:03;;;;;;;;;0.60;0.60;24.40;99.90;;;;;;5065385;28;8841;-69
2022/08/23 02:11:29;;;;;;;;;2.80;2.80;24.50;99.90;;;;;;5045471;28;8984;-65
2022/08/23 02:14:03;;;;;;;;;2.00;2.00;24.50;99.90;;;;;;5062094;28;8895;-64
2022/08/23 02:16:46;;;;;;;;;2.60;1.00;24.60;99.90;;;;;;5048362;28;8988;-69
2022/08/23 02:19:43;;;;;;;;;1.00;1.00;24.60;99.90;;;;;;5045122;28;8824;-67
2022/08/23 02:22:14;;;;;;;;;0.80;0.80;24.70;99.90;;;;;;5073386;28;8858;-64
2022/08/23 02:24:47;;;;;;;;;2.00;2.00;24.60;99.90;;;;;;5045922;28;9002;-67
2022/08/23 02:27:18;;;;;;;;;1.00;1.00;24.60;99.90;;;;;;5075844;28;8863;-69
2022/08/23 02:29:53;;;;;;;;;1.00;1.00;24.60;99.90;;;;;;5044647;28;8880;-68
2022/08/23 02:32:25;;;;;;;;;1.00;1.00;24.70;99.90;;;;;;5044581;28;8880;-67
2022/08/23 02:34:58;;;;;;;;;2.00;2.00;24.60;99.90;;;;;;5054740;28;8913;-69
2022/08/23 02:37:35;;;;;;;;;2.00;2.00;24.70;99.90;;;;;;5033319;28;8864;-68
2022/08/23 02:40:06;;;;;;;;;2.00;2.00;24.70;99.90;;;;;;5052368;28;8893;-70
2022/08/23 02:42:37;;;;;;;;;1.00;1.00;24.70;99.90;;;;;;5062965;28;8831;-69
2022/08/23 02:45:08;;;;;;;;;2.00;2.00;24.70;99.90;;;;;;5045505;28;8853;-63
2022/08/23 02:47:45;;;;;;;;;2.00;2.00;24.70;99.90;;;;;;5062734;28;8855;-63
2022/08/23 02:50:24;;;;;;;;;1.00;1.00;24.70;99.90;;;;;;5048740;28;8887;-61
2022/08/23 02:52:57;;;;;;;;;1.40;1.40;24.70;99.90;;;;;;5044412;28;8913;-62
2022/08/23 02:55:30;;;;;;;;;2.00;2.00;24.50;99.90;;;;;;5036931;28;8845;-60
2022/08/23 02:58:04;;;;;;;;;1.60;1.60;24.50;99.90;;;;;;5058347;28;8855;-62
2022/08/23 03:00:34;;;;;;;;;1.60;1.60;24.70;99.90;;;;;;5036697;28;8850;-62
2022/08/23 03:03:11;;;;;;;;;1.00;1.00;24.70;99.90;;;;;;5029540;28;8903;-62
2022/08/23 03:05:42;;;;;;;;;1.00;1.00;24.70;99.90;;;;;;5029311;28;8911;-68
2022/08/23 03:08:13;;;;;;;;;2.00;2.00;24.60;99.90;;;;;;5031812;28;8878;-69
2022/08/23 03:10:51;;;;;;;;;2.00;2.00;24.70;99.90;;;;;;5033220;28;8888;-62
2022/08/23 03:13:21;;;;;;;;;2.00;2.00;24.70;99.90;;;;;;5032372;28;9119;-61
2022/08/23 03:15:55;;;;;;;;;1.00;1.00;24.80;99.90;;;;;;5038708;28;8873;-63
2022/08/23 03:18:29;;;;;;;;;1.00;1.00;24.70;99.90;;;;;;5010524;28;8857;-63
2022/08/23 03:21:03;;;;;;;;;1.20;1.20;24.70;99.90;;;;;;5032433;28;8854;-62
2022/08/23 03:23:35;;;;;;;;;1.80;1.80;24.70;99.90;;;;;;5024916;28;8921;-61
2022/08/23 03:26:12;;;;;;;;;1.00;1.00;24.70;99.90;;;;;;5040993;28;9594;-69
2022/08/23 03:28:46;;;;;;;;;1.60;1.60;24.70;99.90;;;;;;5022934;28;8831;-70
2022/08/23 03:31:17;;;;;;;;;1.00;1.00;24.50;99.90;;;;;;5021560;28;8900;-68
2022/08/23 03:34:04;;;;;;;;;2.00;2.00;24.60;99.90;;;;;;5028230;28;9453;-70
2022/08/23 03:36:35;;;;;;;;;3.00;3.00;24.60;99.90;;;;;;5022881;28;8919;-68
2022/08/23 03:39:06;;;;;;;;;1.00;1.00;24.60;99.90;;;;;;5038540;28;8893;-67
2022/08/23 03:41:37;;;;;;;;;1.60;1.60;24.50;99.90;;;;;;5020954;28;8849;-62
2022/08/23 03:44:10;;;;;;;;;1.00;1.00;24.60;99.90;;;;;;5032558;28;8872;-61
2022/08/23 03:46:44;;;;;;;;;1.00;1.00;24.50;99.90;;;;;;5041420;28;8865;-69
2022/08/23 03:49:16;;;;;;;;;1.60;1.60;24.50;99.90;;;;;;5045713;28;8846;-68
2022/08/23 03:51:59;;;;;;;;;1.00;1.00;24.40;99.90;;;;;;5031911;28;8895;-68
2022/08/23 03:54:32;;;;;;;;;1.00;1.00;24.30;99.90;;;;;;5015518;28;8841;-69
2022/08/23 03:57:08;;;;;;;;;0.40;0.40;24.40;99.90;;;;;;5022896;28;9779;-69
2022/08/23 03:59:41;;;;;;;;;1.00;1.00;24.50;99.90;;;;;;5026559;28;8853;-68
2022/08/23 04:02:12;;;;;;;;;1.00;1.00;24.50;99.90;;;;;;5024220;28;8831;-68
2022/08/23 04:04:44;;;;;;;;;1.00;1.00;24.30;99.90;;;;;;5053332;28;8854;-68
2022/08/23 04:07:23;;;;;;;;;2.00;2.00;24.30;99.90;;;;;;5032630;28;9740;-69
2022/08/23 04:09:57;;;;;;;;;1.00;1.00;24.40;99.90;;;;;;5020389;28;8856;-69
2022/08/23 04:12:34;;;;;;;;;1.80;1.80;24.40;99.90;;;;;;5039855;28;8837;-68
2022/08/23 04:15:12;;;;;;;;;2.00;2.00;24.50;99.90;;;;;;5038544;28;8864;-62
2022/08/23 04:17:46;;;;;;;;;1.00;1.00;24.40;99.90;;;;;;5017905;28;8864;-62
2022/08/23 04:20:18;;;;;;;;;2.00;2.00;24.50;99.90;;;;;;5033240;28;8827;-69
2022/08/23 04:22:58;;;;;;;;;1.00;1.00;24.40;99.90;;;;;;5030308;28;8833;-69
2022/08/23 04:25:34;;;;;;;;;1.80;1.80;24.40;99.90;;;;;;5030416;28;9773;-69
2022/08/23 04:28:07;;;;;;;;;1.00;1.00;24.40;99.90;;;;;;5059872;28;8887;-68
2022/08/23 04:30:43;;;;;;;;;0.20;0.20;24.40;99.90;;;;;;5022254;28;8859;-62
2022/08/23 04:33:16;;;;;;;;;2.00;2.00;24.30;99.90;;;;;;5026287;28;9464;-62
2022/08/23 04:35:51;;;;;;;;;1.20;1.20;24.20;99.90;;;;;;5038745;28;8876;-62
2022/08/23 04:38:23;;;;;;;;;0.40;0.40;24.20;99.90;;;;;;5020720;28;8837;-61
2022/08/23 04:43:48;;;;;;;;;2.00;2.00;24.30;99.90;;;;;;5028518;28;8865;-62
2022/08/23 04:46:22;;;;;;;;;1.00;1.00;24.40;99.90;;;;;;5024377;28;8990;-68
2022/08/23 04:48:53;;;;;;;;;2.00;2.00;24.40;99.90;;;;;;5048471;28;9765;-69
2022/08/23 04:51:24;;;;;;;;;1.80;1.80;24.50;99.90;;;;;;5022145;28;8887;-63
2022/08/23 04:53:59;;;;;;;;;1.00;1.00;24.40;99.90;;;;;;5020027;28;9555;-62
2022/08/23 04:56:48;;;;;;;;;1.00;1.00;24.30;99.90;;;;;;5029835;28;8869;-69
2022/08/23 04:59:25;;;;;;;;;2.40;1.80;24.40;99.90;;;;;;5035671;28;9462;-71
2022/08/23 05:01:55;;;;;;;;;2.00;2.00;24.30;99.90;;;;;;5044563;28;8850;-62
2022/08/23 05:04:26;;;;;;;;;3.00;2.00;24.30;99.90;;;;;;5027367;28;8880;-63
2022/08/23 05:06:57;;;;;;;;;2.00;2.00;24.30;99.90;;;;;;5048344;28;8843;-62
2022/08/23 05:09:32;;;;;;;;;1.00;1.00;24.30;99.90;;;;;;5026359;28;8866;-62
2022/08/23 05:12:03;;;;;;;;;2.00;2.00;24.30;99.90;;;;;;5028683;28;8874;-64
2022/08/23 05:14:35;;;;;;;;;1.00;1.00;24.30;99.90;;;;;;5043151;28;8846;-62
2022/08/23 05:17:07;;;;;;;;;1.00;1.00;24.30;99.90;;;;;;5032076;28;8831;-62
2022/08/23 05:19:40;;;;;;;;;2.00;2.00;24.40;99.90;;;;;;5037852;28;8827;-63
2022/08/23 05:22:19;;;;;;;;;2.00;2.00;24.40;99.90;;;;;;5054109;28;8868;-69
2022/08/23 05:25:11;;;;;;;;;1.20;1.20;24.40;99.90;;;;;;5030696;28;8862;-69
2022/08/23 05:27:44;;;;;;;;;2.00;2.00;24.20;99.90;;;;;;5021123;28;10206;-69
2022/08/23 05:30:14;;;;;;;;;2.00;2.00;24.10;99.90;;;;;;5027640;28;8888;-62
2022/08/23 05:32:46;;;;;;;;;2.00;2.00;24.20;99.90;;;;;;5028236;28;8826;-63
2022/08/23 05:35:17;;;;;;;;;1.20;1.20;24.20;99.90;;;;;;5037740;28;8884;-68
2022/08/23 05:37:49;;;;;;;;;0.80;0.80;24.30;99.90;;;;;;5009164;28;9611;-69
2022/08/23 05:40:21;;;;;;;;;1.80;1.80;24.20;99.90;;;;;;5025070;28;8880;-68
2022/08/23 05:43:02;;;;;;;;;1.40;1.40;24.10;99.90;;;;;;5052226;28;8815;-69
2022/08/23 05:45:33;;;;;;;;;1.20;1.20;24.00;99.90;;;;;;5025009;28;8900;-69
2022/08/23 05:48:07;;;;;;;;;1.00;1.00;24.00;99.90;;;;;;5029901;28;8857;-69
2022/08/23 05:50:47;;;;;;;;;1.00;1.00;24.00;99.90;;;;;;5014194;28;8860;-69
2022/08/23 05:53:21;;;;;;;;;2.00;2.00;24.00;99.90;;;;;;5037946;28;8842;-68
2022/08/23 05:55:52;;;;;;;;;1.80;1.80;24.00;99.90;;;;;;5025525;28;8900;-68
2022/08/23 05:58:27;;;;;;;;;1.60;1.00;24.10;99.90;;;;;;5046461;28;9593;-68
2022/08/23 06:00:58;;;;;;;;;1.00;1.00;24.10;99.90;;;;;;5017032;28;8830;-69
2022/08/23 06:03:36;;;;;;;;;1.40;1.00;24.20;99.90;;;;;;5027312;28;8868;-70
2022/08/23 06:06:07;;;;;;;;;2.00;2.00;24.10;99.90;;;;;;5032228;28;8842;-68
2022/08/23 06:08:41;;;;;;;;;1.00;1.00;24.10;99.90;;;;;;5028853;28;8819;-70
2022/08/23 06:11:22;;;;;;;;;2.60;2.60;24.00;99.90;;;;;;5024996;28;8874;-63
2022/08/23 06:14:05;;;;;;;;;2.20;2.20;24.10;99.90;;;;;;5033347;28;8907;-62
2022/08/23 06:16:42;;;;;;;;;2.00;2.00;24.00;99.90;;;;;;5025567;28;9024;-62
2022/08/23 06:19:17;;;;;;;;;2.00;2.00;24.00;99.90;;;;;;5037021;28;8842;-61
2022/08/23 06:21:50;;;;;;;;;2.00;2.00;24.00;99.90;;;;;;5022625;28;9026;-62
2022/08/23 06:24:25;;;;;;;;;2.80;2.80;24.00;99.90;;;;;;5031770;28;8887;-62
2022/08/23 06:27:22;;;;;;;;;2.60;2.60;24.10;99.90;;;;;;5018137;28;8829;-62
2022/08/23 06:29:53;;;;;;;;;2.00;2.00;24.10;99.90;;;;;;5024829;28;9562;-62
2022/08/23 06:32:30;;;;;;;;;2.00;2.00;24.00;99.90;;;;;;5031936;28;9746;-63
2022/08/23 06:35:20;;;;;;;;;2.00;2.00;24.10;99.90;;;;;;5020537;28;8879;-62
2022/08/23 06:38:16;;;;;;;;;2.00;2.00;24.10;99.90;;;;;;5022811;28;8841;-62
2022/08/23 06:40:46;;;;;;;;;1.80;1.80;24.10;99.90;;;;;;5061491;28;8835;-69
2022/08/23 06:43:28;;;;;;;;;1.40;1.40;24.10;99.90;;;;;;5026461;28;8837;-69
2022/08/23 06:46:29;;;;;;;;;0.00;0.00;24.20;99.90;;;;;;5044752;28;8884;-68
2022/08/23 06:49:04;;;;;;;;;2.00;2.00;24.20;99.90;;;;;;5037086;28;8871;-69
2022/08/23 06:51:41;;;;;;;;;1.20;1.20;24.10;99.90;;;;;;5052612;28;8835;-69
2022/08/23 06:54:20;;;;;;;;;2.00;2.00;24.10;99.90;;;;;;5028091;28;8888;-69
2022/08/23 06:57:25;;;;;;;;;1.20;1.20;24.10;99.90;;;;;;5041416;28;8825;-63
2022/08/23 07:00:26;;;;;;;;;1.80;1.80;24.10;99.90;;;;;;5033687;28;8845;-68
2022/08/23 07:03:10;;;;;;;;;2.20;2.20;24.10;99.90;;;;;;5034319;28;8858;-69
2022/08/23 07:06:19;;;;;;;;;2.00;2.00;24.00;99.90;;;;;;4993560;28;8848;-61
2022/08/23 07:08:52;;;;;;;;;2.20;2.20;24.00;99.90;;;;;;4988165;28;8894;-62
2022/08/23 07:11:24;;;;;;;;;3.60;3.60;23.90;99.90;;;;;;5015946;28;8871;-62
2022/08/23 07:13:54;;;;;;;;;2.00;2.00;24.00;99.90;;;;;;5035458;28;9937;-63
2022/08/23 07:16:32;;;;;;;;;3.00;3.00;24.00;99.90;;;;;;5009877;28;8836;-61
2022/08/23 07:19:04;;;;;;;;;2.00;2.00;24.00;99.90;;;;;;5063978;28;8823;-64
2022/08/23 07:21:37;;;;;;;;;3.00;3.00;24.00;99.90;;;;;;5041247;28;8858;-62
2022/08/23 07:24:12;;;;;;;;;3.00;3.00;23.90;99.90;;;;;;5028535;28;8986;-61
2022/08/23 07:26:53;;;;;;;;;2.00;2.00;24.00;99.90;;;;;;5042434;28;9665;-69
2022/08/23 07:29:25;;;;;;;;;2.00;2.00;23.90;99.90;;;;;;5027599;28;8826;-68
2022/08/23 07:31:57;;;;;;;;;3.00;3.00;23.90;99.90;;;;;;5050161;28;8885;-62
2022/08/23 07:34:28;;;;;;;;;2.40;2.40;24.00;99.90;;;;;;5031927;28;8865;-62
2022/08/23 07:37:00;;;;;;;;;2.20;2.20;24.00;99.90;;;;;;5020505;28;9653;-68
2022/08/23 07:39:45;;;;;;;;;2.00;2.00;24.00;99.90;;;;;;5042340;28;8888;-68
2022/08/23 07:42:15;;;;;;;;;3.00;3.00;23.90;99.90;;;;;;5048143;28;8832;-68
2022/08/23 07:44:57;;;;;;;;;1.60;1.60;24.00;99.90;;;;;;5000263;28;8852;-69
2022/08/23 07:47:29;;;;;;;;;3.60;3.60;24.00;99.90;;;;;;5022941;28;8853;-69
2022/08/23 07:50:01;;;;;;;;;2.20;2.20;24.00;99.90;;;;;;5025195;28;8869;-70
2022/08/23 07:52:35;;;;;;;;;3.60;2.00;24.10;99.90;;;;;;5023334;28;8989;-68
2022/08/23 07:55:09;;;;;;;;;2.60;2.60;24.10;99.90;;;;;;5029496;28;8865;-69
2022/08/23 07:57:47;;;;;;;;;2.60;2.60;24.10;99.90;;;;;;5018245;28;8853;-70
2022/08/23 08:00:38;;;;;;;;;1.40;1.40;24.00;99.90;;;;;;5024538;28;8847;-63
2022/08/23 08:03:34;;;;;;;;;2.00;2.00;23.90;99.90;;;;;;5061435;28;8854;-62
2022/08/23 08:06:20;;;;;;;;;1.60;1.60;24.00;99.90;;;;;;5021354;28;8872;-69
2022/08/23 08:08:52;;;;;;;;;3.20;2.00;23.90;99.90;;;;;;5034903;28;8882;-68
2022/08/23 08:11:26;;;;;;;;;0.60;0.60;23.90;99.90;;;;;;5058861;28;8851;-69
2022/08/23 08:14:07;;;;;;;;;1.00;1.00;24.00;99.90;;;;;;5032341;28;8866;-69
2022/08/23 08:16:48;;;;;;;;;1.00;1.00;23.90;99.90;;;;;;5033115;28;8859;-63
2022/08/23 08:19:35;;;;;;;;;1.40;1.40;23.90;99.90;;;;;;5028356;28;8863;-62
2022/08/23 08:22:38;;;;;;;;;1.00;1.00;23.80;99.90;;;;;;5018864;28;8822;-62
2022/08/23 08:25:29;;;;;;;;;1.00;1.00;23.80;99.90;;;;;;5030072;28;8848;-62
2022/08/23 08:28:01;;;;;;;;;1.00;1.00;23.90;99.90;;;;;;5027589;28;8857;-62
2022/08/23 08:30:36;;;;;;;;;1.00;1.00;23.80;99.90;;;;;;5027142;28;9572;-62
2022/08/23 08:33:07;;;;;;;;;1.00;1.00;23.80;99.90;;;;;;5015037;28;8999;-63
2022/08/23 08:35:38;;;;;;;;;0.00;0.00;23.70;99.90;;;;;;5031149;28;8907;-61
2022/08/23 08:38:15;;;;;;;;;1.00;1.00;23.70;99.90;;;;;;5023932;28;8915;-61
2022/08/23 08:40:59;;;;;;;;;1.60;1.60;23.70;99.90;;;;;;5037350;28;8861;-69
2022/08/23 08:43:41;;;;;;;;;1.00;1.00;23.70;99.90;;;;;;5026187;28;9443;-70
2022/08/23 08:46:27;;;;;;;;;1.00;1.00;23.60;99.90;;;;;;5031790;28;8878;-63
2022/08/23 08:49:05;;;;;;;;;1.00;1.00;23.70;99.90;;;;;;5031429;28;8830;-61
2022/08/23 08:51:52;;;;;;;;;1.20;0.40;23.70;99.90;;;;;;5047275;28;9081;-68
2022/08/23 08:54:26;;;;;;;;;0.80;0.80;23.70;99.90;;;;;;5011898;28;8844;-71
2022/08/23 08:57:00;;;;;;;;;1.00;1.00;23.60;99.90;;;;;;5031915;28;8880;-62
2022/08/23 08:59:58;;;;;;;;;0.80;0.80;23.50;99.90;;;;;;5043526;28;8859;-63
2022/08/23 09:02:34;;;;;;;;;1.40;1.40;23.60;99.90;;;;;;5059882;28;8877;-62
2022/08/23 09:05:16;;;;;;;;;1.40;1.40;23.80;99.90;;;;;;5030278;28;8863;-61
2022/08/23 09:07:55;;;;;;;;;1.00;1.00;23.70;99.90;;;;;;5033590;28;8841;-61
2022/08/23 09:10:45;;;;;;;;;1.00;1.00;23.60;99.90;;;;;;5061964;28;8891;-62
2022/08/23 09:13:44;;;;;;;;;1.00;1.00;23.70;99.90;;;;;;5032655;28;8835;-62
2022/08/23 09:16:48;;;;;;;;;1.40;1.40;23.80;99.90;;;;;;5033849;28;8837;-61
2022/08/23 09:19:21;;;;;;;;;1.00;1.00;23.80;99.90;;;;;;5065592;28;8987;-62
2022/08/23 09:22:04;;;;;;;;;1.00;1.00;23.80;99.90;;;;;;5018850;28;9622;-69
2022/08/23 09:24:40;;;;;;;;;1.40;1.40;23.80;99.90;;;;;;5052367;28;8868;-69
2022/08/23 09:27:27;;;;;;;;;1.20;1.20;23.70;99.90;;;;;;5044744;28;8871;-68
2022/08/23 09:30:05;;;;;;;;;1.00;1.00;23.80;99.90;;;;;;5028483;28;8818;-63
2022/08/23 09:32:42;;;;;;;;;1.00;1.00;23.70;99.90;;;;;;5038370;28;8875;-62
2022/08/23 09:35:24;;;;;;;;;2.40;1.60;23.70;99.90;;;;;;5045379;28;8884;-62
2022/08/23 09:38:21;;;;;;;;;1.00;1.00;23.60;99.90;;;;;;5031920;28;8853;-63
2022/08/23 09:41:00;;;;;;;;;0.80;0.80;23.80;99.90;;;;;;5029674;28;8863;-70
2022/08/23 09:43:47;;;;;;;;;2.00;2.00;23.70;99.90;;;;;;5021730;28;8877;-70
2022/08/23 09:46:36;;;;;;;;;1.20;1.20;23.70;99.90;;;;;;5024708;28;8853;-63
2022/08/23 09:49:31;;;;;;;;;0.40;0.40;23.60;99.90;;;;;;5040514;28;8836;-62
2022/08/23 09:52:40;;;;;;;;;1.00;1.00;23.60;99.90;;;;;;5041064;28;8888;-68
2022/08/23 09:55:31;;;;;;;;;0.00;0.00;23.50;99.90;;;;;;5047605;28;8878;-69
2022/08/23 09:58:22;;;;;;;;;1.00;1.00;23.60;99.90;;;;;;5016654;28;8832;-70
2022/08/23 10:01:15;;;;;;;;;1.40;1.40;23.70;99.90;;;;;;5034997;28;8881;-62
2022/08/23 10:04:13;;;;;;;;;1.40;1.40;23.80;99.90;;;;;;5020102;28;8870;-62
2022/08/23 10:06:45;;;;;;;;;0.60;0.60;23.70;99.90;;;;;;5034902;28;8841;-69
2022/08/23 10:09:29;;;;;;;;;1.60;1.60;23.70;99.90;;;;;;5031617;28;8841;-68
2022/08/23 10:12:05;;;;;;;;;1.00;1.00;23.70;99.90;;;;;;5052591;28;8881;-61
2022/08/23 10:14:37;;;;;;;;;1.00;1.00;23.70;99.90;;;;;;5036971;28;8857;-62
2022/08/23 10:17:33;;;;;;;;;0.00;0.00;23.70;99.90;;;;;;5067554;28;8886;-68
2022/08/23 10:20:22;;;;;;;;;1.00;1.00;23.70;99.90;;;;;;5050904;28;8847;-62
2022/08/23 10:23:27;;;;;;;;;0.20;0.20;23.60;99.90;;;;;;5049872;28;8847;-62
2022/08/23 10:25:58;;;;;;;;;1.00;1.00;23.60;99.90;;;;;;5049697;28;8838;-62
2022/08/23 10:32:32;;;;;;;;;1.00;1.00;23.80;99.90;;;;;;4998091;28;8826;-68
2022/08/23 10:35:28;;;;;;;;;1.60;1.60;23.80;99.90;;;;;;5057624;28;8880;-63
2022/08/23 10:38:27;;;;;;;;;0.20;0.20;23.70;99.90;;;;;;5035185;28;8866;-62
2022/08/23 10:41:20;;;;;;;;;1.00;1.00;23.80;99.90;;;;;;5015266;28;8849;-63
2022/08/23 10:44:19;;;;;;;;;1.00;1.00;23.80;99.90;;;;;;5029971;28;8845;-63
2022/08/23 10:47:31;;;;;;;;;1.00;1.00;23.70;99.90;;;;;;5029991;28;8864;-63
2022/08/23 10:50:11;;;;;;;;;1.40;1.40;23.60;99.90;;;;;;5018123;28;8846;-63
2022/08/23 10:53:03;;;;;;;;;2.00;2.00;23.80;99.90;;;;;;5071378;28;8945;-61
2022/08/23 10:58:56;;;;;;;;;0.40;0.40;23.70;99.90;;;;;;5013389;28;8987;-69
2022/08/23 11:02:09;;;;;;;;;1.40;1.40;23.70;99.90;;;;;;5032468;28;8858;-69
2022/08/23 11:04:58;;;;;;;;;1.00;1.00;23.80;99.90;;;;;;5050596;28;8840;-68
2022/08/23 11:07:40;;;;;;;;;1.40;1.40;23.80;99.90;;;;;;5023397;28;8890;-63
2022/08/23 11:10:46;;;;;;;;;2.00;2.00;23.80;99.90;;;;;;5049866;28;9801;-69
2022/08/23 11:13:33;;;;;;;;;1.60;1.60;23.80;99.90;;;;;;5031800;28;8828;-68
2022/08/23 11:16:28;;;;;;;;;1.40;1.40;23.80;99.90;;;;;;5033241;28;8834;-68
2022/08/23 11:19:01;;;;;;;;;1.00;1.00;23.90;99.90;;;;;;5033719;28;8849;-68
2022/08/23 11:21:43;;;;;;;;;1.20;1.20;23.70;99.90;;;;;;5065695;28;8868;-62
2022/08/23 11:24:21;;;;;;;;;1.40;1.40;23.80;99.90;;;;;;5029764;28;8822;-62
2022/08/23 11:26:54;;;;;;;;;2.00;2.00;23.90;99.90;;;;;;5037076;28;8859;-67
2022/08/23 11:29:30;;;;;;;;;1.60;1.60;23.90;99.90;;;;;;5030218;28;8846;-68
2022/08/23 11:32:34;;;;;;;;;2.00;2.00;23.80;99.90;;;;;;5020355;28;8838;-68
2022/08/23 11:35:35;;;;;;;;;2.00;2.00;23.70;99.90;;;;;;5043790;28;8849;-62
2022/08/23 11:38:38;;;;;;;;;1.00;1.00;23.50;99.90;;;;;;5026645;28;8864;-61
2022/08/23 11:41:33;;;;;;;;;2.00;2.00;23.50;99.90;;;;;;5028679;28;8836;-61
2022/08/23 11:44:05;;;;;;;;;2.00;2.00;23.70;99.90;;;;;;5044783;28;8903;-61
2022/08/23 11:46:54;;;;;;;;;2.00;2.00;23.70;99.90;;;;;;5027748;28;8879;-62
2022/08/23 11:49:30;;;;;;;;;2.00;2.00;23.70;99.90;;;;;;5032779;28;8888;-62
2022/08/23 11:52:35;;;;;;;;;1.80;1.80;23.70;99.90;;;;;;5024421;28;8865;-62
2022/08/23 11:55:27;;;;;;;;;1.40;1.40;23.80;99.90;;;;;;5027228;28;8891;-68
2022/08/23 11:58:13;;;;;;;;;2.00;2.00;23.80;99.90;;;;;;5030065;28;9595;-67
2022/08/23 12:01:08;;;;;;;;;2.00;2.00;23.80;99.90;;;;;;5031004;28;8853;-63
2022/08/23 12:03:59;;;;;;;;;2.00;2.00;23.90;99.90;;;;;;5030014;28;8877;-63
2022/08/23 12:06:54;;;;;;;;;1.00;1.00;23.90;99.90;;;;;;5056310;28;8856;-63
2022/08/23 12:09:26;;;;;;;;;2.00;2.00;23.70;99.90;;;;;;5031550;28;8851;-62
2022/08/23 12:11:56;;;;;;;;;1.20;1.20;23.70;99.90;;;;;;5037439;28;8989;-62
2022/08/23 12:14:32;;;;;;;;;1.20;1.20;23.70;99.90;;;;;;5032148;28;8841;-62
2022/08/23 12:17:19;;;;;;;;;2.00;2.00;23.70;99.90;;;;;;5057615;28;8861;-66
2022/08/23 12:20:15;;;;;;;;;1.00;1.00;23.70;99.90;;;;;;5032994;28;9625;-63
2022/08/23 12:22:59;;;;;;;;;2.00;2.00;23.70;99.90;;;;;;5039160;28;8845;-63
2022/08/23 12:25:32;;;;;;;;;1.00;1.00;23.70;99.90;;;;;;5025293;28;8872;-68
2022/08/23 12:28:18;;;;;;;;;2.00;2.00;23.70;99.90;;;;;;5030439;28;8839;-67
2022/08/23 12:31:13;;;;;;;;;1.80;1.80;23.80;99.90;;;;;;5034074;28;8860;-67
2022/08/23 12:34:01;;;;;;;;;1.00;1.00;23.70;99.90;;;;;;5027869;28;8918;-67
2022/08/23 12:36:45;;;;;;;;;1.00;1.00;23.80;99.90;;;;;;5018987;28;8945;-62
2022/08/23 12:39:33;;;;;;;;;1.20;1.20;23.70;99.90;;;;;;5048032;28;9485;-62
2022/08/23 12:42:25;;;;;;;;;1.80;1.80;23.80;99.90;;;;;;5026887;28;8851;-64
2022/08/23 12:45:19;;;;;;;;;1.40;1.40;23.70;99.90;;;;;;5046449;28;8846;-67
2022/08/23 12:48:02;;;;;;;;;3.40;1.00;23.90;99.90;;;;;;5037758;28;8830;-67
2022/08/23 12:50:38;;;;;;;;;1.00;1.00;23.80;99.90;;;;;;5033551;28;8839;-67
2022/08/23 12:53:21;;;;;;;;;1.00;1.00;23.80;99.90;;;;;;5031687;28;8828;-67
2022/08/23 12:56:05;;;;;;;;;1.80;1.80;23.80;99.90;;;;;;5053341;28;8822;-62
2022/08/23 12:58:39;;;;;;;;;4.40;1.60;23.80;99.90;;;;;;5035336;28;8842;-64
2022/08/23 13:01:21;;;;;;;;;1.00;1.00;23.80;99.90;;;;;;5039591;28;8890;-63
2022/08/23 13:04:11;;;;;;;;;1.40;1.40;23.80;99.90;;;;;;5034940;28;9252;-62
2022/08/23 13:06:54;;;;;;;;;1.00;1.00;23.80;99.90;;;;;;5039787;28;8841;-67
2022/08/23 13:09:42;;;;;;;;;1.00;1.00;23.80;99.90;;;;;;5048574;28;8821;-65
2022/08/23 13:12:23;;;;;;;;;1.00;1.00;23.70;99.90;;;;;;5028322;28;8850;-62
2022/08/23 13:15:00;;;;;;;;;1.00;1.00;23.70;99.90;;;;;;5063785;28;8890;-68
2022/08/23 13:17:41;;;;;;;;;1.00;1.00;23.70;99.90;;;;;;5021696;28;8840;-68
2022/08/23 13:20:22;;;;;;;;;1.00;1.00;23.70;99.90;;;;;;5047928;28;8931;-67
2022/08/23 13:23:16;;;;;;;;;1.00;1.00;23.80;99.90;;;;;;5049163;28;8844;-67
2022/08/23 13:25:46;;;;;;;;;1.40;1.40;23.80;99.90;;;;;;5048310;28;8854;-65
2022/08/23 13:28:30;;;;;;;;;1.00;1.00;23.90;99.90;;;;;;5053544;28;8837;-63
2022/08/23 13:31:07;;;;;;;;;1.00;1.00;23.90;99.90;;;;;;5028957;28;8853;-68
2022/08/23 13:33:37;;;;;;;;;1.00;1.00;24.00;99.90;;;;;;5050799;28;8830;-65
2022/08/23 13:36:16;;;;;;;;;1.80;1.80;24.00;99.90;;;;;;5028540;28;8854;-65
2022/08/23 13:38:49;;;;;;;;;1.60;1.00;23.90;99.90;;;;;;5048947;28;8837;-64
2022/08/23 13:41:33;;;;;;;;;1.00;1.00;23.90;99.90;;;;;;5029643;28;8835;-69
2022/08/23 13:44:08;;;;;;;;;1.00;1.00;23.90;99.90;;;;;;5044825;28;8863;-69
2022/08/23 13:46:52;;;;;;;;;1.00;1.00;23.90;99.90;;;;;;5038374;28;8829;-68
2022/08/23 13:49:27;;;;;;;;;1.00;1.00;24.00;99.90;;;;;;5048097;28;8847;-66
2022/08/23 13:52:02;;;;;;;;;2.00;2.00;24.10;99.90;;;;;;5040415;28;8996;-66
2022/08/23 13:54:53;;;;;;;;;2.00;2.00;24.10;99.90;;;;;;5043416;28;8874;-62
2022/08/23 13:57:24;;;;;;;;;1.00;1.00;24.10;99.90;;;;;;5046515;28;8918;-63
2022/08/23 13:59:57;;;;;;;;;1.00;1.00;24.00;99.90;;;;;;5056216;28;8843;-65
2022/08/23 14:02:29;;;;;;;;;0.60;0.60;24.10;99.90;;;;;;5026508;28;8847;-65
2022/08/23 14:04:59;;;;;;;;;1.00;1.00;24.10;99.90;;;;;;5052085;28;8911;-67
2022/08/23 14:07:29;;;;;;;;;1.60;1.60;24.10;99.90;;;;;;5039441;28;8877;-67
2022/08/23 14:10:01;;;;;;;;;1.00;1.00;24.20;99.90;;;;;;5030733;28;8839;-63
2022/08/23 14:12:35;;;;;;;;;2.00;2.00;24.20;99.90;;;;;;5041436;28;9549;-63
2022/08/23 14:15:14;;;;;;;;;1.40;1.40;24.30;99.90;;;;;;5035126;28;8832;-66
2022/08/23 14:17:51;;;;;;;;;0.60;0.60;24.30;99.90;;;;;;5015321;28;8853;-68
2022/08/23 14:20:24;;;;;;;;;1.00;1.00;24.30;99.90;;;;;;5053673;28;8896;-66
2022/08/23 14:23:15;;;;;;;;;1.60;1.60;24.30;99.90;;;;;;5029268;28;8857;-66
2022/08/23 14:25:57;;;;;;;;;2.00;2.00;24.30;99.90;;;;;;5037609;28;8865;-63
2022/08/23 14:28:30;;;;;;;;;1.00;1.00;24.40;99.90;;;;;;5032974;28;10100;-64
2022/08/23 14:31:01;;;;;;;;;1.00;1.00;24.20;99.90;;;;;;5027022;28;8909;-67
2022/08/23 14:33:33;;;;;;;;;1.00;1.00;24.30;99.90;;;;;;5055296;28;8837;-68
2022/08/23 14:36:06;;;;;;;;;1.00;1.00;24.40;99.90;;;;;;5023061;28;8922;-65
2022/08/23 14:38:38;;;;;;;;;1.00;1.00;24.50;99.90;;;;;;5050542;28;8862;-64
2022/08/23 14:41:12;;;;;;;;;1.00;1.00;24.50;99.90;;;;;;5047242;28;8846;-64
2022/08/23 14:43:44;;;;;;;;;2.00;2.00;24.60;99.90;;;;;;5034721;28;8867;-65
2022/08/23 14:46:17;;;;;;;;;1.40;1.40;24.50;99.90;;;;;;5054587;28;8860;-68
2022/08/23 14:48:48;;;;;;;;;1.00;1.00;24.60;99.90;;;;;;5058135;28;10029;-70
2022/08/23 14:51:20;;;;;;;;;2.00;2.00;24.60;99.90;;;;;;5048473;28;8872;-70
2022/08/23 14:53:55;;;;;;;;;2.00;2.00;24.60;99.90;;;;;;5045427;28;8836;-69
2022/08/23 14:56:28;;;;;;;;;2.00;2.00;24.60;99.90;;;;;;5043129;28;8876;-68
2022/08/23 14:58:59;;;;;;;;;0.80;0.80;24.60;99.90;;;;;;5033485;28;8988;-69
2022/08/23 15:01:31;;;;;;;;;2.40;2.40;24.60;99.90;;;;;;5043080;28;8861;-69
2022/08/23 15:04:05;;;;;;;;;2.40;2.40;24.60;99.90;;;;;;5045872;28;9596;-68
2022/08/23 15:06:39;;;;;;;;;1.40;1.40;24.60;99.90;;;;;;5023320;28;8837;-67
2022/08/23 15:09:32;;;;;;;;;2.00;2.00;24.70;99.90;;;;;;5038240;28;8877;-62
2022/08/23 15:12:05;;;;;;;;;2.00;2.00;24.60;99.90;;;;;;5041290;28;8849;-62
2022/08/23 15:14:55;;;;;;;;;2.00;2.00;24.70;99.90;;;;;;5061366;28;8858;-63
2022/08/23 15:17:29;;;;;;;;;2.00;2.00;24.70;99.90;;;;;;5022314;28;9624;-64
2022/08/23 15:20:05;;;;;;;;;2.00;2.00;24.80;99.90;;;;;;5055598;28;8830;-69
2022/08/23 15:22:38;;;;;;;;;1.00;1.00;24.80;99.90;;;;;;5038383;28;9525;-70
2022/08/23 15:25:16;;;;;;;;;1.00;1.00;24.80;99.90;;;;;;5038119;28;8868;-70
2022/08/23 15:27:52;;;;;;;;;2.20;2.20;24.90;99.90;;;;;;5058863;28;8849;-69
2022/08/23 15:30:24;;;;;;;;;2.20;2.20;25.00;99.90;;;;;;5028332;28;8867;-70
2022/08/23 15:33:02;;;;;;;;;1.60;1.60;25.00;99.90;;;;;;5063716;28;8864;-69
2022/08/23 15:35:45;;;;;;;;;2.40;2.40;25.10;99.90;;;;;;5060211;28;8865;-69
2022/08/23 15:38:17;;;;;;;;;3.40;3.00;25.10;99.90;;;;;;5053541;28;8878;-69
2022/08/23 15:40:50;;;;;;;;;3.00;3.00;25.10;99.90;;;;;;5042007;28;8842;-62
2022/08/23 15:43:23;;;;;;;;;3.00;3.00;25.10;99.90;;;;;;5018978;28;8854;-66
2022/08/23 15:46:09;;;;;;;;;2.60;2.60;25.10;99.90;;;;;;5034701;28;8988;-63
2022/08/23 15:48:51;;;;;;;;;3.00;3.00;25.10;99.90;;;;;;5017270;28;8884;-65
2022/08/23 15:51:21;;;;;;;;;2.80;2.80;25.20;99.90;;;;;;5037798;28;8889;-68
2022/08/23 15:53:53;;;;;;;;;3.00;3.00;25.20;99.90;;;;;;5019281;28;8839;-66
2022/08/23 15:56:52;;;;;;;;;3.00;3.00;25.20;99.90;;;;;;5027369;28;8860;-64
2022/08/23 15:59:23;;;;;;;;;2.40;2.40;25.20;99.90;;;;;;5034894;28;8892;-64